Time;durP1;ratioP1;P1;durP2;ratioP2;P2;SDS_P1;SDS_P2;PMS_P1;PMS_P2;Temp;Humidity;BMP_temperature;BMP_pressure;BME280_temperature;BME280_humidity;BME280_pressure;Samples;Min_cycle;Max_cycle;Signal;HPM_P1;HPM_P2
2022/03/22 00:00:59;;;;;;;56.60;21.97;;;;;;;1.47;55.93;96313.50;5056202;28;20217;-84
2022/03/22 00:03:25;;;;;;;58.80;23.40;;;;;;;1.52;55.37;96314.00;5074110;28;20170;-84
2022/03/22 00:05:52;;;;;;;58.17;20.57;;;;;;;1.57;55.03;96315.38;5056006;28;20169;-84
2022/03/22 00:08:18;;;;;;;59.13;21.77;;;;;;;1.30;54.94;96269.09;5074001;28;20159;-84
2022/03/22 00:10:44;;;;;;;46.63;22.83;;;;;;;1.66;54.13;96317.28;5070953;28;20209;-84
2022/03/22 00:13:10;;;;;;;51.90;23.33;;;;;;;1.24;54.70;96233.25;5073218;28;20189;-85
2022/03/22 00:15:36;;;;;;;53.23;21.57;;;;;;;1.71;54.68;96299.59;5073217;28;20273;-84
2022/03/22 00:18:02;;;;;;;42.97;21.30;;;;;;;1.42;54.53;96240.41;5073206;28;20174;-83
2022/03/22 00:20:27;;;;;;;39.97;18.20;;;;;;;1.55;54.55;96266.22;5074023;28;20541;-84
2022/03/22 00:22:54;;;;;;;43.47;17.87;;;;;;;1.81;54.52;96309.13;5073593;28;20166;-84
2022/03/22 00:25:20;;;;;;;38.27;18.83;;;;;;;1.43;54.98;96238.66;5055595;28;21007;-85
2022/03/22 00:27:52;;;;;;;41.50;18.97;;;;;;;1.86;54.78;96299.19;5055551;28;20354;-84
2022/03/22 00:30:29;;;;;;;33.53;16.37;;;;;;;1.85;53.93;96294.94;5073410;28;20165;-84
2022/03/22 00:32:58;;;;;;;32.60;15.20;;;;;;;1.61;53.38;96251.94;5073553;28;20162;-84
2022/03/22 00:35:26;;;;;;;30.60;15.03;;;;;;;2.00;52.52;96305.88;5080068;28;20217;-84
2022/03/22 00:37:53;;;;;;;36.17;15.70;;;;;;;2.03;53.59;96305.63;5061639;28;20171;-84
2022/03/22 00:40:24;;;;;;;37.57;16.60;;;;;;;1.81;54.09;96249.44;5072742;28;20659;-84
2022/03/22 00:42:52;;;;;;;34.17;16.10;;;;;;;1.83;54.47;96254.47;5070403;28;20220;-83
2022/03/22 00:45:22;;;;;;;56.53;19.40;;;;;;;2.10;54.82;96293.81;5055445;28;20191;-84
2022/03/22 00:47:50;;;;;;;39.27;18.73;;;;;;;1.60;55.36;96219.97;5081266;28;20193;-83
2022/03/22 00:50:19;;;;;;;35.33;17.77;;;;;;;1.72;54.98;96237.19;5076735;28;20572;-85
2022/03/22 00:52:45;;;;;;;40.97;17.77;;;;;;;1.78;54.60;96247.06;5055195;28;20190;-84
2022/03/22 00:55:12;;;;;;;34.43;17.43;;;;;;;2.10;54.29;96303.38;5073130;28;20603;-84
2022/03/22 00:57:39;;;;;;;39.03;18.37;;;;;;;2.02;55.14;96292.78;5054975;28;20170;-84
2022/03/22 01:00:09;;;;;;;42.47;18.30;;;;;;;1.77;54.76;96254.97;5054893;28;20239;-84
2022/03/22 01:02:37;;;;;;;39.33;17.43;;;;;;;1.67;54.56;96231.50;5054897;28;20194;-84
2022/03/22 01:05:07;;;;;;;33.50;17.17;;;;;;;1.96;54.68;96268.13;5072986;28;20162;-84
2022/03/22 01:07:35;;;;;;;38.17;19.13;;;;;;;2.14;54.74;96294.41;5072973;28;20548;-84
2022/03/22 01:10:05;;;;;;;37.63;17.53;;;;;;;1.90;54.68;96253.06;5053888;28;20627;-84
2022/03/22 01:12:32;;;;;;;40.10;17.30;;;;;;;2.04;54.35;96259.72;5053920;28;20194;-83
2022/03/22 01:14:58;;;;;;;40.00;18.03;;;;;;;1.73;53.25;96199.06;5071834;28;20584;-84
2022/03/22 01:17:23;;;;;;;38.27;17.37;;;;;;;1.97;53.87;96232.59;5071733;28;20182;-84
2022/03/22 01:19:49;;;;;;;41.67;18.07;;;;;;;1.88;53.92;96232.41;5072811;28;20158;-84
2022/03/22 01:22:16;;;;;;;37.20;17.13;;;;;;;2.16;53.94;96272.53;5072256;28;20238;-84
2022/03/22 01:24:43;;;;;;;48.60;18.27;;;;;;;1.98;54.52;96240.28;5054451;28;20209;-84
2022/03/22 01:27:09;;;;;;;47.63;19.27;;;;;;;1.93;54.40;96226.81;5054430;28;20587;-84
2022/03/22 01:29:34;;;;;;;43.90;19.07;;;;;;;2.01;54.74;96252.16;5054410;28;20178;-85
2022/03/22 01:32:00;;;;;;;38.10;17.03;;;;;;;1.79;54.62;96217.56;5072774;28;20248;-84
2022/03/22 01:34:25;;;;;;;35.97;16.67;;;;;;;2.13;54.63;96270.19;5072074;28;20707;-84
2022/03/22 01:36:51;;;;;;;44.40;17.83;;;;;;;2.00;54.63;96250.50;5072569;28;20170;-86
2022/03/22 01:39:16;;;;;;;38.57;17.50;;;;;;;1.89;55.04;96222.84;5054316;28;20165;-86
2022/03/22 01:41:42;;;;;;;46.40;21.03;;;;;;;1.89;55.40;96213.28;5054065;28;20181;-83
2022/03/22 01:44:07;;;;;;;61.93;25.70;;;;;;;1.70;55.35;96183.75;5072357;28;20174;-83
2022/03/22 01:46:35;;;;;;;60.03;27.83;;;;;;;2.16;54.83;96261.34;5072340;28;20167;-84
2022/03/22 01:49:02;;;;;;;62.37;25.53;;;;;;;1.51;55.71;96154.06;5054090;28;20167;-84
2022/03/22 01:51:31;;;;;;;41.93;18.77;;;;;;;2.16;54.13;96266.53;5081024;28;20228;-83
2022/03/22 01:53:57;;;;;;;63.90;26.23;;;;;;;1.78;55.17;96209.91;5072130;28;20178;-84
2022/03/22 01:56:22;;;;;;;63.23;24.43;;;;;;;1.69;55.56;96182.91;5071885;28;20166;-84
2022/03/22 01:58:48;;;;;;;59.77;26.63;;;;;;;1.87;54.09;96206.56;5071703;28;20170;-84
2022/03/22 02:06:45;;;;;;;48.80;17.53;;;;;;;1.62;54.95;96173.16;5071193;28;20266;-84
2022/03/22 02:09:10;;;;;;;44.90;17.60;;;;;;;1.76;53.42;96207.41;5053380;28;20210;-84
2022/03/22 02:11:37;;;;;;;38.27;16.07;;;;;;;1.88;53.69;96211.63;5053263;28;20206;-84
2022/03/22 02:14:04;;;;;;;35.37;15.83;;;;;;;1.96;53.06;96216.19;5053695;28;20174;-84
2022/03/22 02:16:29;;;;;;;39.17;15.20;;;;;;;2.01;52.94;96218.41;5072147;28;20311;-84
2022/03/22 02:18:55;;;;;;;34.83;15.03;;;;;;;1.86;53.81;96195.34;5053887;28;20198;-85
2022/03/22 02:21:23;;;;;;;28.63;13.77;;;;;;;2.19;53.79;96227.31;5072050;28;20658;-85
2022/03/22 02:23:54;;;;;;;28.70;13.03;;;;;;;2.09;52.70;96206.44;5072004;28;20181;-84
2022/03/22 02:26:22;;;;;;;32.40;15.13;;;;;;;2.34;53.22;96238.19;5071667;28;20154;-83
2022/03/22 02:28:47;;;;;;;30.67;14.23;;;;;;;2.09;53.45;96203.03;5071861;28;20174;-83
2022/03/22 02:31:13;;;;;;;31.87;14.30;;;;;;;2.28;53.06;96235.16;5071786;28;20182;-82
2022/03/22 02:33:45;;;;;;;30.23;13.83;;;;;;;2.02;53.16;96196.69;5054919;28;20318;-83
2022/03/22 02:36:11;;;;;;;27.53;13.27;;;;;;;2.28;53.63;96242.13;5057665;28;20170;-84
2022/03/22 02:38:37;;;;;;;36.73;15.23;;;;;;;1.88;53.56;96177.88;5075824;28;20246;-84
2022/03/22 02:41:03;;;;;;;29.67;14.87;;;;;;;1.88;53.79;96183.06;5075475;28;20155;-84
2022/03/22 02:43:29;;;;;;;30.37;14.60;;;;;;;1.98;54.69;96216.09;5057468;28;20186;-84
2022/03/22 02:45:54;;;;;;;29.90;13.37;;;;;;;1.50;54.86;96157.63;5075668;28;20186;-84
2022/03/22 02:48:20;;;;;;;36.87;15.47;;;;;;;1.52;54.58;96155.72;5057499;28;20174;-84
2022/03/22 02:50:45;;;;;;;33.03;15.80;;;;;;;1.98;55.27;96242.88;5057280;28;20166;-84
2022/03/22 02:53:11;;;;;;;33.23;13.37;;;;;;;1.90;54.67;96234.88;5075559;28;20190;-84
2022/03/22 02:55:36;;;;;;;28.87;14.53;;;;;;;1.69;54.74;96202.84;5075503;28;20576;-83
2022/03/22 02:58:03;;;;;;;27.13;13.43;;;;;;;1.65;55.06;96201.44;5075146;28;20174;-84
2022/03/22 03:00:28;;;;;;;23.17;11.53;;;;;;;1.72;54.31;96233.75;5074327;28;20269;-84
2022/03/22 03:02:54;;;;;;;30.33;13.47;;;;;;;1.56;54.91;96212.56;5056500;28;20253;-84
2022/03/22 03:05:21;;;;;;;33.63;13.93;;;;;;;1.52;54.70;96206.78;5074814;28;20220;-84
2022/03/22 03:07:47;;;;;;;29.50;13.73;;;;;;;1.78;55.21;96243.63;5090468;28;20748;-84
2022/03/22 03:10:13;;;;;;;33.17;14.20;;;;;;;1.45;55.36;96206.47;5075041;28;20200;-84
2022/03/22 03:12:39;;;;;;;29.40;13.67;;;;;;;1.75;55.24;96254.25;5057222;28;20241;-84
2022/03/22 03:15:07;;;;;;;41.23;17.97;;;;;;;1.71;55.59;96253.69;5074863;28;20666;-84
2022/03/22 03:17:33;;;;;;;42.30;18.97;;;;;;;1.42;55.12;96200.69;5056887;28;20171;-84
2022/03/22 03:19:59;;;;;;;45.97;20.80;;;;;;;1.59;55.32;96246.03;5086592;28;20182;-84
2022/03/22 03:22:24;;;;;;;44.53;21.13;;;;;;;1.44;55.17;96224.72;5055984;28;20193;-85
2022/03/22 03:24:50;;;;;;;42.50;20.13;;;;;;;1.40;55.05;96220.72;5074247;28;20564;-84
2022/03/22 03:27:16;;;;;;;40.07;21.07;;;;;;;1.51;55.40;96244.06;5074150;28;20175;-84
2022/03/22 03:29:42;;;;;;;50.53;22.17;;;;;;;1.05;55.92;96185.41;5074746;28;20202;-83
2022/03/22 03:32:08;;;;;;;43.00;19.73;;;;;;;1.28;55.29;96243.28;5074797;28;20178;-84
2022/03/22 03:34:33;;;;;;;41.63;19.73;;;;;;;1.31;56.22;96239.59;5074430;28;20222;-84
2022/03/22 03:36:59;;;;;;;41.60;17.50;;;;;;;1.07;55.53;96201.69;5074806;28;20166;-84
2022/03/22 03:39:24;;;;;;;33.67;15.87;;;;;;;1.25;55.66;96234.91;5074286;28;20189;-84
2022/03/22 03:41:53;;;;;;;38.73;15.73;;;;;;;1.23;55.80;96237.59;5074891;28;20194;-84
2022/03/22 03:47:09;;;;;;;42.23;18.10;;;;;;;1.32;56.75;96242.06;5075167;28;20673;-84
2022/03/22 03:49:45;;;;;;;28.43;13.50;;;;;;;1.27;55.64;96241.63;5074582;28;20189;-84
2022/03/22 03:52:17;;;;;;;41.03;14.73;;;;;;;1.24;55.35;96243.63;5073771;28;20568;-84
2022/03/22 03:54:43;;;;;;;39.87;16.83;;;;;;;1.02;55.86;96218.53;5055731;28;20236;-84
2022/03/22 03:57:10;;;;;;;36.77;17.30;;;;;;;1.23;56.42;96257.53;5073086;28;20707;-84
2022/03/22 03:59:37;;;;;;;36.93;16.23;;;;;;;0.99;56.04;96214.41;5073058;28;20253;-83
2022/03/22 04:02:04;;;;;;;36.20;16.53;;;;;;;1.18;55.71;96251.88;5072470;28;20216;-84
2022/03/22 04:04:30;;;;;;;42.17;16.80;;;;;;;0.80;56.16;96190.03;5056502;28;20178;-84
2022/03/22 04:06:56;;;;;;;41.43;17.73;;;;;;;0.80;56.50;96198.63;5074421;28;20159;-84
2022/03/22 04:09:21;;;;;;;39.63;18.97;;;;;;;0.67;56.75;96182.38;5055793;28;20739;-84
2022/03/22 04:11:47;;;;;;;45.37;18.77;;;;;;;0.71;56.63;96192.38;5055766;28;20194;-84
2022/03/22 04:14:13;;;;;;;43.33;19.40;;;;;;;0.62;57.06;96185.31;5073813;28;20241;-84
2022/03/22 04:16:40;;;;;;;39.47;20.03;;;;;;;0.66;56.82;96214.41;5074130;28;20182;-84
2022/03/22 04:19:08;;;;;;;46.23;20.93;;;;;;;0.80;57.76;96239.25;5073726;28;20190;-83
2022/03/22 04:21:38;;;;;;;45.73;20.57;;;;;;;0.48;57.11;96189.91;5057974;28;20423;-81
2022/03/22 04:24:06;;;;;;;53.60;21.17;;;;;;;0.85;57.79;96240.56;5083792;28;20178;-84
2022/03/22 04:26:36;;;;;;;49.97;20.53;;;;;;;0.91;58.21;96249.63;5054458;28;20263;-83
2022/03/22 04:34:32;;;;;;;59.57;22.63;;;;;;;0.59;58.06;96206.28;5080276;28;20237;-81
2022/03/22 04:36:59;;;;;;;47.27;22.83;;;;;;;0.88;58.29;96253.28;5075850;28;20166;-82
2022/03/22 04:39:26;;;;;;;51.03;24.60;;;;;;;0.93;58.08;96251.19;5073285;28;20171;-82
2022/03/22 04:41:52;;;;;;;62.47;26.90;;;;;;;0.67;58.25;96209.13;5055291;28;20162;-82
2022/03/22 04:44:18;;;;;;;64.37;29.93;;;;;;;0.70;58.14;96208.03;5055274;28;20190;-83
2022/03/22 04:46:44;;;;;;;62.83;29.13;;;;;;;0.96;58.31;96235.38;5073252;28;20178;-83
2022/03/22 04:49:09;;;;;;;63.23;27.53;;;;;;;0.89;57.69;96205.69;5073457;28;20163;-83
2022/03/22 04:57:03;;;;;;;108.87;47.17;;;;;;;1.87;54.07;96240.31;5071422;28;20174;-82
2022/03/22 04:59:28;;;;;;;135.17;58.10;;;;;;;1.90;53.70;96219.31;5071771;28;20182;-82
2022/03/22 05:01:54;;;;;;;131.73;54.40;;;;;;;2.12;53.21;96185.44;5070974;28;20179;-82
2022/03/22 05:04:20;;;;;;;142.90;60.47;;;;;;;3.00;51.97;96234.38;5071683;28;20635;-82
2022/03/22 05:06:46;;;;;;;153.03;65.00;;;;;;;3.67;50.13;96242.38;5071803;28;20173;-83
2022/03/22 05:09:12;;;;;;;156.37;67.53;;;;;;;4.23;47.85;96227.91;5054473;28;20193;-83
2022/03/22 05:11:39;;;;;;;153.13;65.80;;;;;;;5.16;46.91;96246.25;5054728;28;20202;-83
2022/03/22 05:14:04;;;;;;;155.80;64.47;;;;;;;5.83;44.40;96203.28;5073157;28;20190;-83
2022/03/22 05:16:30;;;;;;;148.17;66.67;;;;;;;7.20;42.44;96259.34;5073020;28;20217;-83
2022/03/22 05:18:57;;;;;;;153.40;66.30;;;;;;;7.77;39.49;96217.69;5072797;28;20178;-83
2022/03/22 05:21:26;;;;;;;150.57;64.97;;;;;;;8.74;38.15;96243.22;5072279;28;20169;-83
2022/03/22 05:23:52;;;;;;;138.00;62.97;;;;;;;9.48;35.99;96215.81;5053603;28;20205;-83
2022/03/22 05:26:18;;;;;;;104.07;48.90;;;;;;;10.29;34.22;96206.72;5071561;28;21679;-82
2022/03/22 05:28:44;;;;;;;86.63;39.43;;;;;;;10.49;33.11;96192.06;5071546;28;20170;-82
2022/03/22 05:31:12;;;;;;;95.90;39.37;;;;;;;11.72;31.88;96240.72;5071939;28;20264;-83
2022/03/22 05:33:38;;;;;;;74.80;31.70;;;;;;;12.19;30.50;96176.16;5072122;28;20222;-83
2022/03/22 05:36:05;;;;;;;114.17;44.80;;;;;;;13.44;29.97;96238.78;5072590;28;20165;-83
2022/03/22 05:38:31;;;;;;;139.47;62.33;;;;;;;14.28;28.62;96244.66;5078635;28;20170;-83
2022/03/22 05:40:58;;;;;;;255.73;106.13;;;;;;;14.98;27.75;96247.88;5072851;28;20712;-83
2022/03/22 05:43:26;;;;;;;420.77;189.30;;;;;;;15.12;26.59;96199.13;5054386;28;20162;-84
2022/03/22 05:45:52;;;;;;;863.85;401.67;;;;;;;15.31;26.15;96178.88;5054247;28;20166;-84
2022/03/22 05:48:18;;;;;;;1614.45;598.55;;;;;;;16.36;26.55;96244.09;5072457;28;20204;-84
2022/03/22 05:50:44;;;;;;;1999.90;668.38;;;;;;;17.23;24.67;96219.38;5075335;28;20666;-85
2022/03/22 05:53:12;;;;;;;1297.15;94.53;;;;;;;17.75;23.75;96206.59;5054239;28;20186;-85
2022/03/22 05:55:38;;;;;;;1999.90;999.90;;;;;;;18.00;23.01;96215.31;5070637;28;20185;-85
2022/03/22 05:58:04;;;;;;;1999.90;999.90;;;;;;;18.36;21.99;96201.13;5071366;28;20170;-85
2022/03/22 06:00:30;;;;;;;1999.90;999.90;;;;;;;18.50;20.91;96193.78;5069111;28;20189;-84
2022/03/22 06:02:56;;;;;;;1999.90;524.30;;;;;;;19.07;19.04;96194.97;5070587;28;20178;-85
2022/03/22 06:05:22;;;;;;;93.63;86.00;;;;;;;19.36;18.65;96228.78;5053271;28;20190;-84
2022/03/22 06:07:47;;;;;;;31.58;18.10;;;;;;;20.41;18.38;96235.88;5070387;28;20549;-84
2022/03/22 06:10:13;;;;;;;29.92;16.35;;;;;;;21.38;17.81;96231.97;5071390;28;20659;-84
2022/03/22 06:12:51;;;;;;;35.83;16.98;;;;;;;22.22;17.39;96223.81;5071556;28;20198;-84
2022/03/22 06:15:23;;;;;;;27.67;14.93;;;;;;;22.71;16.34;96187.00;5071935;28;20651;-84
2022/03/22 06:17:50;;;;;;;23.33;12.50;;;;;;;23.23;15.78;96232.91;5071242;28;20186;-84
2022/03/22 06:20:18;;;;;;;30.38;12.77;;;;;;;23.59;16.19;96191.00;5071206;28;20179;-82
2022/03/22 06:22:45;;;;;;;37.40;18.33;;;;;;;24.01;15.88;96187.44;5071799;28;20158;-83
2022/03/22 06:25:12;;;;;;;28.98;12.82;;;;;;;24.73;15.46;96227.03;5071729;28;20257;-83
2022/03/22 06:27:38;;;;;;;22.35;12.93;;;;;;;24.95;14.25;96221.44;5071860;28;20185;-85
2022/03/22 06:30:08;;;;;;;17.45;9.60;;;;;;;24.99;14.07;96168.63;5071799;28;20159;-86
2022/03/22 06:32:46;;;;;;;16.65;8.57;;;;;;;24.98;14.02;96208.25;5071941;28;20200;-83
2022/03/22 06:35:23;;;;;;;22.33;11.48;;;;;;;24.42;14.44;96213.47;5051967;28;20167;-82
2022/03/22 06:37:50;;;;;;;16.38;9.77;;;;;;;23.48;15.41;96220.72;5050072;28;20151;-82
2022/03/22 06:40:17;;;;;;;34.25;14.63;;;;;;;23.48;14.32;96226.09;5051649;28;20229;-84
2022/03/22 06:42:44;;;;;;;19.35;8.88;;;;;;;24.03;14.61;96231.06;5051204;28;20171;-85
2022/03/22 06:45:11;;;;;;;12.27;6.93;;;;;;;24.58;14.26;96219.69;5050565;28;20214;-83
2022/03/22 06:47:39;;;;;;;12.35;7.82;;;;;;;24.60;14.19;96217.56;5050813;28;20197;-85
2022/03/22 06:50:06;;;;;;;14.20;8.75;;;;;;;24.26;13.71;96221.75;5051114;28;20163;-85
2022/03/22 06:52:31;;;;;;;12.73;7.60;;;;;;;23.18;14.98;96221.28;5051567;28;20228;-84
2022/03/22 06:54:58;;;;;;;16.52;8.35;;;;;;;22.55;16.17;96191.44;5034685;28;20175;-85
2022/03/22 06:57:23;;;;;;;15.45;8.48;;;;;;;21.32;16.43;96202.69;5051147;28;20175;-83
2022/03/22 06:59:49;;;;;;;14.13;8.10;;;;;;;19.70;17.95;96204.97;5050862;28;20914;-83
2022/03/22 07:02:17;;;;;;;11.18;7.88;;;;;;;18.41;18.10;96209.28;5050875;28;20640;-83
2022/03/22 07:04:42;;;;;;;17.98;9.52;;;;;;;17.58;19.35;96211.66;5050381;28;20174;-82
2022/03/22 07:07:08;;;;;;;21.67;10.15;;;;;;;16.96;20.03;96160.25;5053606;28;20178;-83
2022/03/22 07:09:33;;;;;;;21.52;10.20;;;;;;;17.51;19.59;96209.09;5050452;28;20171;-82
2022/03/22 07:11:59;;;;;;;17.88;9.23;;;;;;;17.47;20.04;96194.56;5032933;28;20187;-83
2022/03/22 07:14:27;;;;;;;18.08;9.02;;;;;;;17.46;20.42;96214.28;5050737;28;20652;-83
2022/03/22 07:16:53;;;;;;;21.90;11.10;;;;;;;16.91;21.40;96200.81;5051744;28;20167;-83
2022/03/22 07:19:20;;;;;;;21.90;10.52;;;;;;;17.14;21.54;96210.03;5052342;28;20163;-83
2022/03/22 07:21:48;;;;;;;14.32;8.15;;;;;;;17.15;19.71;96203.69;5036908;28;20757;-83
2022/03/22 07:24:18;;;;;;;17.02;8.82;;;;;;;17.29;20.99;96197.22;5054433;28;20694;-83
2022/03/22 07:26:43;;;;;;;13.50;8.60;;;;;;;17.12;21.44;96162.38;5036106;28;20228;-83
2022/03/22 07:29:09;;;;;;;14.88;7.93;;;;;;;17.14;21.50;96154.97;5029544;28;20190;-84
2022/03/22 07:31:38;;;;;;;14.98;7.22;;;;;;;17.35;20.84;96196.34;5053787;28;20190;-83
2022/03/22 07:34:07;;;;;;;12.43;7.22;;;;;;;17.21;19.31;96197.50;5062128;28;20261;-83
2022/03/22 07:36:35;;;;;;;12.07;7.03;;;;;;;16.41;20.76;96148.59;5073750;28;20228;-83
2022/03/22 07:39:01;;;;;;;11.65;7.43;;;;;;;15.93;21.19;96146.41;5073648;28;20169;-83
2022/03/22 07:41:27;;;;;;;11.68;7.25;;;;;;;15.59;21.70;96136.97;5073538;28;20257;-84
2022/03/22 07:43:54;;;;;;;9.40;7.03;;;;;;;15.74;22.22;96187.19;5073719;28;21026;-84
2022/03/22 07:46:20;;;;;;;13.07;7.70;;;;;;;15.53;23.03;96180.25;5074350;28;20173;-82
2022/03/22 07:48:46;;;;;;;13.35;7.38;;;;;;;15.19;23.95;96180.53;5055473;28;20178;-82
2022/03/22 07:53:55;;;;;;;12.73;8.73;;;;;;;14.04;23.65;96162.28;5073717;28;20559;-82
2022/03/22 07:56:21;;;;;;;15.93;8.80;;;;;;;13.43;25.80;96154.31;5073417;28;20179;-83
2022/03/22 07:58:46;;;;;;;16.10;8.67;;;;;;;12.96;25.94;96155.88;5073474;28;20166;-81
2022/03/22 08:01:12;;;;;;;12.87;8.10;;;;;;;12.47;26.99;96140.84;5073470;28;20167;-83
2022/03/22 08:03:37;;;;;;;13.70;7.83;;;;;;;12.32;27.22;96178.91;5073289;28;20179;-82
2022/03/22 08:06:07;;;;;;;12.27;6.80;;;;;;;11.78;28.07;96152.97;5073674;28;20163;-81
2022/03/22 08:08:33;;;;;;;11.63;6.60;;;;;;;11.79;28.07;96188.06;5054350;28;20170;-81
2022/03/22 08:10:59;;;;;;;12.23;6.60;;;;;;;11.45;28.70;96184.19;5074827;28;20159;-80
2022/03/22 08:13:24;;;;;;;16.87;8.20;;;;;;;11.15;28.72;96172.03;5073293;28;20174;-80
2022/03/22 08:15:50;;;;;;;17.20;9.97;;;;;;;10.53;29.21;96098.56;5073585;28;20174;-82
2022/03/22 08:18:16;;;;;;;18.07;8.43;;;;;;;10.83;29.54;96173.16;5073292;28;20631;-82
2022/03/22 08:20:42;;;;;;;18.77;7.37;;;;;;;10.75;29.75;96183.78;5072638;28;20174;-80
2022/03/22 08:23:09;;;;;;;15.10;7.27;;;;;;;10.63;30.13;96182.59;5073726;28;20701;-81
2022/03/22 08:25:37;;;;;;;13.50;7.10;;;;;;;10.56;30.69;96182.44;5072871;28;20166;-80
2022/03/22 08:28:06;;;;;;;15.37;7.73;;;;;;;10.29;30.62;96159.34;5070186;28;20559;-81
2022/03/22 08:30:33;;;;;;;17.40;8.53;;;;;;;10.11;30.54;96128.84;5072103;28;20255;-81
2022/03/22 08:33:03;;;;;;;29.00;9.93;;;;;;;10.33;31.21;96181.66;5071987;28;20630;-80
2022/03/22 08:35:29;;;;;;;14.43;8.33;;;;;;;10.13;32.16;96179.47;5072247;28;20186;-80
2022/03/22 08:37:56;;;;;;;15.83;7.50;;;;;;;10.16;32.00;96171.22;5072983;28;20170;-81
2022/03/22 08:40:22;;;;;;;15.80;7.90;;;;;;;9.93;31.54;96130.13;5071204;28;20162;-80
2022/03/22 08:42:49;;;;;;;13.00;7.03;;;;;;;10.09;31.39;96191.34;5072512;28;20636;-80
2022/03/22 08:45:27;;;;;;;13.83;6.93;;;;;;;10.06;32.21;96182.97;5072535;28;20201;-81
2022/03/22 08:47:53;;;;;;;10.70;6.17;;;;;;;10.06;33.52;96178.53;5071818;28;20178;-80
2022/03/22 08:50:22;;;;;;;15.93;6.23;;;;;;;10.05;33.94;96176.88;5068835;28;20174;-80
2022/03/22 08:52:49;;;;;;;13.83;7.10;;;;;;;10.06;32.96;96170.63;5072280;28;20182;-81
2022/03/22 08:55:17;;;;;;;14.50;7.17;;;;;;;10.16;32.82;96173.84;5071371;28;20247;-81
2022/03/22 08:57:44;;;;;;;12.20;7.23;;;;;;;9.90;32.08;96126.03;5069995;28;20202;-80
2022/03/22 09:00:11;;;;;;;16.87;7.23;;;;;;;10.21;32.54;96174.16;5072195;28;20634;-81
2022/03/22 09:02:42;;;;;;;14.77;7.97;;;;;;;10.11;32.68;96149.06;5072031;28;20231;-81
2022/03/22 09:07:56;;;;;;;17.60;8.43;;;;;;;10.09;33.75;96158.94;5072250;28;20170;-80
2022/03/22 09:10:22;;;;;;;46.63;12.43;;;;;;;9.98;34.41;96152.28;5072238;28;20159;-81
2022/03/22 09:12:49;;;;;;;21.87;16.10;;;;;;;9.95;35.41;96144.72;5071860;28;20610;-81
2022/03/22 09:15:22;;;;;;;179.87;86.73;;;;;;;9.60;35.60;96105.88;5071606;28;20193;-80
2022/03/22 09:17:48;;;;;;;60.43;56.07;;;;;;;9.48;36.10;96115.94;5066284;28;20190;-80
2022/03/22 09:20:14;;;;;;;114.27;105.93;;;;;;;9.64;36.41;96149.19;5066480;28;20183;-80
2022/03/22 09:22:44;;;;;;;252.93;235.57;;;;;;;9.57;35.79;96143.81;5069619;28;20678;-80
2022/03/22 09:25:11;;;;;;;335.43;309.17;;;;;;;9.60;35.47;96158.44;5071480;28;20288;-80
2022/03/22 09:27:38;;;;;;;589.37;523.97;;;;;;;9.63;35.96;96150.19;5054604;28;20231;-81
2022/03/22 09:30:05;;;;;;;806.17;668.30;;;;;;;9.46;35.36;96110.03;5071486;28;20253;-80
2022/03/22 09:32:31;;;;;;;1203.10;716.50;;;;;;;9.67;35.61;96135.72;5071993;28;20194;-80
2022/03/22 09:34:59;;;;;;;1184.10;747.80;;;;;;;9.73;36.04;96125.31;5071651;28;20218;-80
2022/03/22 09:37:26;;;;;;;1304.23;808.17;;;;;;;9.79;35.56;96121.97;5070460;28;20501;-81
2022/03/22 09:39:51;;;;;;;1999.90;920.53;;;;;;;9.71;36.63;96113.31;5055319;28;20167;-80
2022/03/22 09:42:17;;;;;;;1396.03;905.17;;;;;;;9.67;37.16;96114.69;5071238;28;20178;-80
2022/03/22 09:44:47;;;;;;;1356.87;971.67;;;;;;;9.73;37.45;96109.53;5071397;28;20170;-80
2022/03/22 09:47:15;;;;;;;1327.47;859.83;;;;;;;9.50;38.44;96097.38;5070007;28;20170;-83
2022/03/22 09:49:41;;;;;;;1484.57;727.93;;;;;;;9.58;40.26;96127.06;5071932;28;20170;-81
2022/03/22 09:52:08;;;;;;;1097.43;805.90;;;;;;;9.29;41.46;96109.28;5071968;28;20247;-81
2022/03/22 09:54:34;;;;;;;808.03;512.43;;;;;;;9.15;42.26;96069.81;5072090;28;20198;-80
2022/03/22 09:56:59;;;;;;;1115.00;746.37;;;;;;;9.46;42.02;96107.41;5071886;28;20174;-82
2022/03/22 09:59:25;;;;;;;642.37;322.93;;;;;;;9.42;42.09;96085.91;5071266;28;20605;-82
2022/03/22 10:01:50;;;;;;;847.20;187.40;;;;;;;9.45;41.79;96109.22;5052670;28;20171;-83
2022/03/22 10:04:16;;;;;;;1535.90;601.67;;;;;;;9.26;42.35;96072.03;5070643;28;20179;-80
2022/03/22 10:06:47;;;;;;;706.07;426.23;;;;;;;9.64;42.07;96107.13;5052831;28;20303;-80
2022/03/22 10:09:13;;;;;;;1049.40;558.97;;;;;;;9.51;41.53;96070.09;5054547;28;20178;-80
2022/03/22 10:11:41;;;;;;;1148.57;566.30;;;;;;;9.51;41.80;96075.34;5070341;28;20257;-80
2022/03/22 10:14:08;;;;;;;731.00;299.17;;;;;;;9.55;41.85;96082.72;5071247;28;20169;-80
2022/03/22 10:16:51;;;;;;;824.90;263.17;;;;;;;9.42;41.99;96057.00;5070649;28;20175;-81
2022/03/22 10:19:21;;;;;;;453.37;135.50;;;;;;;9.35;41.77;96042.09;5053211;28;20186;-83
2022/03/22 10:21:46;;;;;;;754.87;396.77;;;;;;;9.07;42.67;96015.50;5069545;28;20194;-83
2022/03/22 10:24:15;;;;;;;992.77;455.00;;;;;;;9.31;42.01;96044.25;5050515;28;20263;-84
2022/03/22 10:26:44;;;;;;;794.00;309.07;;;;;;;9.37;42.12;96054.06;5049528;28;20261;-83
2022/03/22 10:29:11;;;;;;;425.60;202.20;;;;;;;9.64;42.35;96054.56;5068474;28;20655;-83
2022/03/22 10:31:39;;;;;;;643.83;466.67;;;;;;;9.81;41.52;96063.97;5068837;28;20263;-83
2022/03/22 10:34:06;;;;;;;456.63;320.60;;;;;;;10.02;41.10;96058.88;5050951;28;20639;-84
2022/03/22 10:36:38;;;;;;;1076.00;542.07;;;;;;;9.70;41.49;96040.69;5067929;28;20179;-83
2022/03/22 10:39:07;;;;;;;1224.13;611.47;;;;;;;9.71;41.76;96047.59;5068620;28;20170;-83
2022/03/22 10:41:38;;;;;;;1523.93;741.20;;;;;;;9.89;40.98;96053.38;5077310;28;20178;-82
2022/03/22 10:44:14;;;;;;;898.80;368.20;;;;;;;9.98;41.42;96051.50;5060177;28;20167;-84
2022/03/22 10:46:44;;;;;;;578.57;217.10;;;;;;;10.23;41.77;96039.78;5068864;28;20174;-83
2022/03/22 10:49:15;;;;;;;1049.53;250.57;;;;;;;10.44;40.07;96036.47;5050740;28;20615;-84
2022/03/22 10:51:46;;;;;;;630.70;419.93;;;;;;;10.54;40.16;96027.31;5068510;28;20194;-84
2022/03/22 10:54:15;;;;;;;1999.90;999.90;;;;;;;10.65;39.88;96018.13;5072953;28;20175;-82
2022/03/22 10:56:50;;;;;;;954.43;494.97;;;;;;;10.32;40.41;95958.94;5072020;28;20201;-83
2022/03/22 10:59:19;;;;;;;1191.77;483.90;;;;;;;10.79;39.75;96012.03;5054469;28;20642;-84
2022/03/22 11:01:47;;;;;;;1456.60;500.07;;;;;;;10.97;39.90;96022.19;5072868;28;20177;-83
2022/03/22 11:04:15;;;;;;;1999.90;999.90;;;;;;;11.03;39.22;96010.91;5072371;28;20181;-84
2022/03/22 11:06:42;;;;;;;1730.03;724.37;;;;;;;10.88;38.78;95960.06;5072262;28;20659;-84
2022/03/22 11:09:08;;;;;;;1430.53;495.10;;;;;;;11.21;37.54;95981.50;5072286;28;20174;-83
2022/03/22 11:11:35;;;;;;;1194.47;374.67;;;;;;;11.38;36.52;95990.00;5054347;28;20202;-84
2022/03/22 11:14:02;;;;;;;1873.67;796.63;;;;;;;11.31;36.45;95998.66;5072224;28;20251;-84
2022/03/22 11:16:30;;;;;;;1510.50;297.83;;;;;;;11.06;36.29;95986.84;5053890;28;20728;-83
2022/03/22 11:18:59;;;;;;;1726.53;775.03;;;;;;;11.10;36.63;95989.91;5071812;28;20206;-83
2022/03/22 11:21:26;;;;;;;1674.37;747.47;;;;;;;11.12;35.78;95983.44;5072252;28;20170;-83
2022/03/22 11:24:10;;;;;;;1173.43;229.43;;;;;;;10.81;36.55;95920.47;5068435;28;20196;-84
2022/03/22 11:26:44;;;;;;;607.77;94.77;;;;;;;11.19;35.81;95979.06;5054471;28;20632;-83
2022/03/22 11:29:17;;;;;;;1999.90;999.90;;;;;;;11.33;35.87;95974.72;5054183;28;20617;-83
2022/03/22 11:34:08;;;;;;;1177.30;385.07;;;;;;;11.07;35.73;95921.78;5072357;28;20285;-81
2022/03/22 11:34:33;;;;;;;1983.97;778.07;;;;;;;11.22;35.86;95957.59;5073605;28;20226;-81
2022/03/22 11:37:00;;;;;;;996.60;219.03;;;;;;;11.19;37.01;95957.97;5054543;28;20202;-81
2022/03/22 11:42:31;;;;;;;1809.60;502.37;;;;;;;11.37;36.18;95933.81;5012413;28;20566;-83
2022/03/22 11:45:02;;;;;;;1999.90;999.90;;;;;;;11.20;35.59;95896.34;5006748;28;20189;-85